sensor_id;sensor_type;location;lat;lon;timestamp;temperature;humidity
18450;DHT22;9354;50.194;7.690;2023-04-28T00:00:10;11.60;99.90
18450;DHT22;9354;50.194;7.690;2023-04-28T00:02:37;11.60;99.90
18450;DHT22;9354;50.194;7.690;2023-04-28T00:05:05;11.60;99.90
18450;DHT22;9354;50.194;7.690;2023-04-28T00:07:33;11.60;99.90
18450;DHT22;9354;50.194;7.690;2023-04-28T00:10:00;11.60;99.90
18450;DHT22;9354;50.194;7.690;2023-04-28T00:12:29;11.60;99.90
18450;DHT22;9354;50.194;7.690;2023-04-28T00:14:56;11.60;99.90
18450;DHT22;9354;50.194;7.690;2023-04-28T00:17:23;11.50;99.90
18450;DHT22;9354;50.194;7.690;2023-04-28T00:19:51;11.50;99.90
18450;DHT22;9354;50.194;7.690;2023-04-28T00:22:18;11.50;99.90
18450;DHT22;9354;50.194;7.690;2023-04-28T00:24:46;11.40;99.90
18450;DHT22;9354;50.194;7.690;2023-04-28T00:27:13;11.40;99.90
18450;DHT22;9354;50.194;7.690;2023-04-28T00:29:42;11.40;99.90
18450;DHT22;9354;50.194;7.690;2023-04-28T00:32:09;11.40;99.90
18450;DHT22;9354;50.194;7.690;2023-04-28T00:34:38;11.40;99.90
18450;DHT22;9354;50.194;7.690;2023-04-28T00:37:05;11.40;99.90
18450;DHT22;9354;50.194;7.690;2023-04-28T00:39:33;11.50;99.90
18450;DHT22;9354;50.194;7.690;2023-04-28T00:42:00;11.50;99.90
18450;DHT22;9354;50.194;7.690;2023-04-28T00:44:29;11.50;99.90
18450;DHT22;9354;50.194;7.690;2023-04-28T00:46:58;11.40;99.90
18450;DHT22;9354;50.194;7.690;2023-04-28T00:49:25;11.30;99.90
18450;DHT22;9354;50.194;7.690;2023-04-28T00:51:53;11.30;99.90
18450;DHT22;9354;50.194;7.690;2023-04-28T00:54:20;11.20;99.90
18450;DHT22;9354;50.194;7.690;2023-04-28T00:56:48;11.20;99.90
18450;DHT22;9354;50.194;7.690;2023-04-28T00:59:15;11.10;99.90
18450;DHT22;9354;50.194;7.690;2023-04-28T01:01:43;11.10;99.90
18450;DHT22;9354;50.194;7.690;2023-04-28T01:04:12;11.10;99.90
18450;DHT22;9354;50.194;7.690;2023-04-28T01:06:41;11.10;99.90
18450;DHT22;9354;50.194;7.690;2023-04-28T01:09:08;11.00;99.90
18450;DHT22;9354;50.194;7.690;2023-04-28T01:11:35;11.10;99.90
18450;DHT22;9354;50.194;7.690;2023-04-28T01:14:03;11.00;99.90
18450;DHT22;9354;50.194;7.690;2023-04-28T01:16:33;11.10;99.90
18450;DHT22;9354;50.194;7.690;2023-04-28T01:19:05;11.10;99.90
18450;DHT22;9354;50.194;7.690;2023-04-28T01:21:34;11.10;99.90
18450;DHT22;9354;50.194;7.690;2023-04-28T01:24:05;11.10;99.90
18450;DHT22;9354;50.194;7.690;2023-04-28T01:26:32;11.10;99.90
18450;DHT22;9354;50.194;7.690;2023-04-28T01:29:00;11.10;99.90
18450;DHT22;9354;50.194;7.690;2023-04-28T01:31:27;11.10;99.90
18450;DHT22;9354;50.194;7.690;2023-04-28T01:33:55;11.10;99.90
18450;DHT22;9354;50.194;7.690;2023-04-28T01:36:23;11.00;99.90
18450;DHT22;9354;50.194;7.690;2023-04-28T01:38:52;11.00;99.90
18450;DHT22;9354;50.194;7.690;2023-04-28T01:41:21;11.00;99.90
18450;DHT22;9354;50.194;7.690;2023-04-28T01:43:48;11.10;99.90
18450;DHT22;9354;50.194;7.690;2023-04-28T01:46:16;11.00;99.90
18450;DHT22;9354;50.194;7.690;2023-04-28T01:48:43;11.00;99.90
18450;DHT22;9354;50.194;7.690;2023-04-28T01:51:11;11.00;99.90
18450;DHT22;9354;50.194;7.690;2023-04-28T01:53:38;11.00;99.90
18450;DHT22;9354;50.194;7.690;2023-04-28T01:56:05;11.00;99.90
18450;DHT22;9354;50.194;7.690;2023-04-28T01:58:34;11.00;99.90
18450;DHT22;9354;50.194;7.690;2023-04-28T02:01:01;11.00;99.90
18450;DHT22;9354;50.194;7.690;2023-04-28T02:03:29;11.00;99.90
18450;DHT22;9354;50.194;7.690;2023-04-28T02:05:57;11.00;99.90
18450;DHT22;9354;50.194;7.690;2023-04-28T02:08:24;10.90;99.90
18450;DHT22;9354;50.194;7.690;2023-04-28T02:10:51;10.90;99.90
18450;DHT22;9354;50.194;7.690;2023-04-28T02:13:19;10.80;99.90
18450;DHT22;9354;50.194;7.690;2023-04-28T02:15:48;10.80;99.90
18450;DHT22;9354;50.194;7.690;2023-04-28T02:18:15;10.70;99.90
18450;DHT22;9354;50.194;7.690;2023-04-28T02:20:42;10.70;99.90
18450;DHT22;9354;50.194;7.690;2023-04-28T02:23:10;10.70;99.90
18450;DHT22;9354;50.194;7.690;2023-04-28T02:25:38;10.60;99.90
18450;DHT22;9354;50.194;7.690;2023-04-28T02:28:06;10.60;99.90
18450;DHT22;9354;50.194;7.690;2023-04-28T02:30:33;10.60;99.90
18450;DHT22;9354;50.194;7.690;2023-04-28T02:33:02;10.50;99.90
18450;DHT22;9354;50.194;7.690;2023-04-28T02:35:29;10.50;99.90
18450;DHT22;9354;50.194;7.690;2023-04-28T02:37:57;10.50;99.90
18450;DHT22;9354;50.194;7.690;2023-04-28T02:40:24;10.50;99.90
18450;DHT22;9354;50.194;7.690;2023-04-28T02:42:51;10.50;99.90
18450;DHT22;9354;50.194;7.690;2023-04-28T02:45:19;10.40;99.90
18450;DHT22;9354;50.194;7.690;2023-04-28T02:47:46;10.40;99.90
18450;DHT22;9354;50.194;7.690;2023-04-28T02:50:15;10.40;99.90
18450;DHT22;9354;50.194;7.690;2023-04-28T02:52:42;10.40;99.90
18450;DHT22;9354;50.194;7.690;2023-04-28T02:55:10;10.40;99.90
18450;DHT22;9354;50.194;7.690;2023-04-28T02:57:37;10.40;99.90
18450;DHT22;9354;50.194;7.690;2023-04-28T03:00:06;10.40;99.90
18450;DHT22;9354;50.194;7.690;2023-04-28T03:02:33;10.30;99.90
18450;DHT22;9354;50.194;7.690;2023-04-28T03:05:01;10.30;99.90
18450;DHT22;9354;50.194;7.690;2023-04-28T03:07:30;10.40;99.90
18450;DHT22;9354;50.194;7.690;2023-04-28T03:09:57;10.40;99.90
18450;DHT22;9354;50.194;7.690;2023-04-28T03:12:24;10.40;99.90
18450;DHT22;9354;50.194;7.690;2023-04-28T03:14:52;10.40;99.90
18450;DHT22;9354;50.194;7.690;2023-04-28T03:17:19;10.40;99.90
18450;DHT22;9354;50.194;7.690;2023-04-28T03:19:47;10.40;99.90
18450;DHT22;9354;50.194;7.690;2023-04-28T03:22:14;10.40;99.90
18450;DHT22;9354;50.194;7.690;2023-04-28T03:24:43;10.40;99.90
18450;DHT22;9354;50.194;7.690;2023-04-28T03:27:10;10.40;99.90
18450;DHT22;9354;50.194;7.690;2023-04-28T03:29:37;10.50;99.90
18450;DHT22;9354;50.194;7.690;2023-04-28T03:32:05;10.50;99.90
18450;DHT22;9354;50.194;7.690;2023-04-28T03:34:33;10.60;99.90
18450;DHT22;9354;50.194;7.690;2023-04-28T03:37:00;10.60;99.90
18450;DHT22;9354;50.194;7.690;2023-04-28T03:39:28;10.60;99.90
18450;DHT22;9354;50.194;7.690;2023-04-28T03:41:57;10.70;99.90
18450;DHT22;9354;50.194;7.690;2023-04-28T03:44:24;10.70;99.90
18450;DHT22;9354;50.194;7.690;2023-04-28T03:46:51;10.70;99.90
18450;DHT22;9354;50.194;7.690;2023-04-28T03:49:19;10.70;99.90
18450;DHT22;9354;50.194;7.690;2023-04-28T03:51:46;10.70;99.90
18450;DHT22;9354;50.194;7.690;2023-04-28T03:54:16;10.70;99.90
18450;DHT22;9354;50.194;7.690;2023-04-28T03:56:43;10.60;99.90
18450;DHT22;9354;50.194;7.690;2023-04-28T03:59:12;10.60;99.90
18450;DHT22;9354;50.194;7.690;2023-04-28T04:01:40;10.60;99.90
18450;DHT22;9354;50.194;7.690;2023-04-28T04:04:08;10.60;99.90
18450;DHT22;9354;50.194;7.690;2023-04-28T04:06:35;10.60;99.90
18450;DHT22;9354;50.194;7.690;2023-04-28T04:09:03;10.60;99.90
18450;DHT22;9354;50.194;7.690;2023-04-28T04:11:30;10.60;99.90
18450;DHT22;9354;50.194;7.690;2023-04-28T04:13:58;10.60;99.90
18450;DHT22;9354;50.194;7.690;2023-04-28T04:16:26;10.60;99.90
18450;DHT22;9354;50.194;7.690;2023-04-28T04:18:54;10.60;99.90
18450;DHT22;9354;50.194;7.690;2023-04-28T04:21:21;10.60;99.90
18450;DHT22;9354;50.194;7.690;2023-04-28T04:23:49;10.60;99.90
18450;DHT22;9354;50.194;7.690;2023-04-28T04:26:16;10.60;99.90
18450;DHT22;9354;50.194;7.690;2023-04-28T04:28:44;10.60;99.90
18450;DHT22;9354;50.194;7.690;2023-04-28T04:31:11;10.60;99.90
18450;DHT22;9354;50.194;7.690;2023-04-28T04:33:40;10.60;99.90
18450;DHT22;9354;50.194;7.690;2023-04-28T04:36:08;10.60;99.90
18450;DHT22;9354;50.194;7.690;2023-04-28T04:38:35;10.60;99.90
18450;DHT22;9354;50.194;7.690;2023-04-28T04:41:03;10.60;99.90
18450;DHT22;9354;50.194;7.690;2023-04-28T04:43:30;10.60;99.90
18450;DHT22;9354;50.194;7.690;2023-04-28T04:45:57;10.60;99.90
18450;DHT22;9354;50.194;7.690;2023-04-28T04:48:25;10.60;99.90
18450;DHT22;9354;50.194;7.690;2023-04-28T04:50:54;10.60;99.90
18450;DHT22;9354;50.194;7.690;2023-04-28T04:53:21;10.60;99.90
18450;DHT22;9354;50.194;7.690;2023-04-28T04:55:49;10.60;99.90
18450;DHT22;9354;50.194;7.690;2023-04-28T04:58:16;10.60;99.90
18450;DHT22;9354;50.194;7.690;2023-04-28T05:00:44;10.60;99.90
18450;DHT22;9354;50.194;7.690;2023-04-28T05:03:11;10.60;99.90
18450;DHT22;9354;50.194;7.690;2023-04-28T05:05:39;10.60;99.90
18450;DHT22;9354;50.194;7.690;2023-04-28T05:08:11;10.70;99.90
18450;DHT22;9354;50.194;7.690;2023-04-28T05:10:38;10.70;99.90
18450;DHT22;9354;50.194;7.690;2023-04-28T05:13:06;10.80;99.90
18450;DHT22;9354;50.194;7.690;2023-04-28T05:15:33;10.80;99.90
18450;DHT22;9354;50.194;7.690;2023-04-28T05:18:01;10.80;99.90
18450;DHT22;9354;50.194;7.690;2023-04-28T05:20:34;10.80;99.90
18450;DHT22;9354;50.194;7.690;2023-04-28T05:23:02;10.80;99.90
18450;DHT22;9354;50.194;7.690;2023-04-28T05:25:31;10.80;99.90
18450;DHT22;9354;50.194;7.690;2023-04-28T05:27:58;10.80;99.90
18450;DHT22;9354;50.194;7.690;2023-04-28T05:30:29;10.70;99.90
18450;DHT22;9354;50.194;7.690;2023-04-28T05:32:57;10.70;99.90
18450;DHT22;9354;50.194;7.690;2023-04-28T05:35:24;10.60;99.90
18450;DHT22;9354;50.194;7.690;2023-04-28T05:37:52;10.60;99.90
18450;DHT22;9354;50.194;7.690;2023-04-28T05:40:19;10.50;99.90
18450;DHT22;9354;50.194;7.690;2023-04-28T05:42:48;10.40;99.90
18450;DHT22;9354;50.194;7.690;2023-04-28T05:45:16;10.40;99.90
18450;DHT22;9354;50.194;7.690;2023-04-28T05:47:43;10.40;99.90
18450;DHT22;9354;50.194;7.690;2023-04-28T05:50:11;10.30;99.90
18450;DHT22;9354;50.194;7.690;2023-04-28T05:52:38;10.30;99.90
18450;DHT22;9354;50.194;7.690;2023-04-28T05:55:06;10.20;99.90
18450;DHT22;9354;50.194;7.690;2023-04-28T05:57:34;10.20;99.90
18450;DHT22;9354;50.194;7.690;2023-04-28T06:00:04;10.20;99.90
18450;DHT22;9354;50.194;7.690;2023-04-28T06:02:32;10.20;99.90
18450;DHT22;9354;50.194;7.690;2023-04-28T06:04:59;10.20;99.90
18450;DHT22;9354;50.194;7.690;2023-04-28T06:07:26;10.20;99.90
18450;DHT22;9354;50.194;7.690;2023-04-28T06:09:54;10.20;99.90
18450;DHT22;9354;50.194;7.690;2023-04-28T06:12:21;10.20;99.90
18450;DHT22;9354;50.194;7.690;2023-04-28T06:14:48;10.10;99.90
18450;DHT22;9354;50.194;7.690;2023-04-28T06:17:19;10.10;99.90
18450;DHT22;9354;50.194;7.690;2023-04-28T06:19:47;10.10;99.90
18450;DHT22;9354;50.194;7.690;2023-04-28T06:22:16;10.10;99.90
18450;DHT22;9354;50.194;7.690;2023-04-28T06:24:43;10.20;99.90
18450;DHT22;9354;50.194;7.690;2023-04-28T06:27:11;10.20;99.90
18450;DHT22;9354;50.194;7.690;2023-04-28T06:29:38;10.20;99.90
18450;DHT22;9354;50.194;7.690;2023-04-28T06:32:05;10.20;99.90
18450;DHT22;9354;50.194;7.690;2023-04-28T06:34:36;10.30;99.90
18450;DHT22;9354;50.194;7.690;2023-04-28T06:37:03;10.30;99.90
18450;DHT22;9354;50.194;7.690;2023-04-28T06:39:31;10.40;99.90
18450;DHT22;9354;50.194;7.690;2023-04-28T06:41:58;10.50;99.90
18450;DHT22;9354;50.194;7.690;2023-04-28T06:44:26;10.50;99.90
18450;DHT22;9354;50.194;7.690;2023-04-28T06:46:54;10.60;99.90
18450;DHT22;9354;50.194;7.690;2023-04-28T06:49:21;10.60;99.90
18450;DHT22;9354;50.194;7.690;2023-04-28T06:51:50;10.70;99.90
18450;DHT22;9354;50.194;7.690;2023-04-28T06:54:17;10.80;99.90
18450;DHT22;9354;50.194;7.690;2023-04-28T06:56:45;10.80;99.90
18450;DHT22;9354;50.194;7.690;2023-04-28T06:59:12;10.90;99.90
18450;DHT22;9354;50.194;7.690;2023-04-28T07:01:40;10.90;99.90
18450;DHT22;9354;50.194;7.690;2023-04-28T07:04:07;11.00;99.90
18450;DHT22;9354;50.194;7.690;2023-04-28T07:06:34;11.00;99.90
18450;DHT22;9354;50.194;7.690;2023-04-28T07:09:03;11.00;99.90
18450;DHT22;9354;50.194;7.690;2023-04-28T07:11:31;11.10;99.90
18450;DHT22;9354;50.194;7.690;2023-04-28T07:13:58;11.10;99.90
18450;DHT22;9354;50.194;7.690;2023-04-28T07:16:26;11.10;99.90
18450;DHT22;9354;50.194;7.690;2023-04-28T07:18:54;11.10;99.90
18450;DHT22;9354;50.194;7.690;2023-04-28T07:21:21;11.10;99.90
18450;DHT22;9354;50.194;7.690;2023-04-28T07:23:49;11.10;99.90
18450;DHT22;9354;50.194;7.690;2023-04-28T07:26:18;11.20;99.90
18450;DHT22;9354;50.194;7.690;2023-04-28T07:28:45;11.20;99.90
18450;DHT22;9354;50.194;7.690;2023-04-28T07:31:13;11.30;99.90
18450;DHT22;9354;50.194;7.690;2023-04-28T07:33:41;11.30;99.90
18450;DHT22;9354;50.194;7.690;2023-04-28T07:36:08;11.40;99.90
18450;DHT22;9354;50.194;7.690;2023-04-28T07:38:36;11.50;99.90
18450;DHT22;9354;50.194;7.690;2023-04-28T07:41:04;11.50;99.90
18450;DHT22;9354;50.194;7.690;2023-04-28T07:43:33;11.60;99.90
18450;DHT22;9354;50.194;7.690;2023-04-28T07:46:01;11.60;99.90
18450;DHT22;9354;50.194;7.690;2023-04-28T07:48:30;11.70;99.90
18450;DHT22;9354;50.194;7.690;2023-04-28T07:50:57;11.70;99.90
18450;DHT22;9354;50.194;7.690;2023-04-28T07:53:25;11.70;99.90
18450;DHT22;9354;50.194;7.690;2023-04-28T07:55:53;11.70;99.90
18450;DHT22;9354;50.194;7.690;2023-04-28T07:58:20;11.70;99.90
18450;DHT22;9354;50.194;7.690;2023-04-28T08:00:49;11.70;99.90
18450;DHT22;9354;50.194;7.690;2023-04-28T08:03:16;11.70;99.90
18450;DHT22;9354;50.194;7.690;2023-04-28T08:05:43;11.80;99.90
18450;DHT22;9354;50.194;7.690;2023-04-28T08:08:11;11.90;99.90
18450;DHT22;9354;50.194;7.690;2023-04-28T08:10:39;12.00;99.90
18450;DHT22;9354;50.194;7.690;2023-04-28T08:13:08;12.10;99.90
18450;DHT22;9354;50.194;7.690;2023-04-28T08:15:36;12.20;99.90
18450;DHT22;9354;50.194;7.690;2023-04-28T08:18:05;12.20;99.90
18450;DHT22;9354;50.194;7.690;2023-04-28T08:20:33;12.30;99.90
18450;DHT22;9354;50.194;7.690;2023-04-28T08:23:01;12.30;99.90
18450;DHT22;9354;50.194;7.690;2023-04-28T08:25:28;12.40;99.90
18450;DHT22;9354;50.194;7.690;2023-04-28T08:27:56;12.50;99.90
18450;DHT22;9354;50.194;7.690;2023-04-28T08:30:23;12.60;99.90
18450;DHT22;9354;50.194;7.690;2023-04-28T08:32:51;12.70;99.90
18450;DHT22;9354;50.194;7.690;2023-04-28T08:35:20;12.70;99.90
18450;DHT22;9354;50.194;7.690;2023-04-28T08:37:48;12.80;99.90
18450;DHT22;9354;50.194;7.690;2023-04-28T08:40:15;12.80;99.90
18450;DHT22;9354;50.194;7.690;2023-04-28T08:42:43;12.90;99.90
18450;DHT22;9354;50.194;7.690;2023-04-28T08:45:13;12.90;99.90
18450;DHT22;9354;50.194;7.690;2023-04-28T08:47:41;12.90;99.90
18450;DHT22;9354;50.194;7.690;2023-04-28T08:50:11;13.00;99.90
18450;DHT22;9354;50.194;7.690;2023-04-28T08:52:41;13.10;99.90
18450;DHT22;9354;50.194;7.690;2023-04-28T08:55:11;13.20;99.90
18450;DHT22;9354;50.194;7.690;2023-04-28T08:57:41;13.30;99.90
18450;DHT22;9354;50.194;7.690;2023-04-28T09:00:10;13.40;99.90
18450;DHT22;9354;50.194;7.690;2023-04-28T09:02:37;13.40;99.90
18450;DHT22;9354;50.194;7.690;2023-04-28T09:05:07;13.60;99.90
18450;DHT22;9354;50.194;7.690;2023-04-28T09:07:35;13.90;99.90
18450;DHT22;9354;50.194;7.690;2023-04-28T09:10:18;14.20;99.90
18450;DHT22;9354;50.194;7.690;2023-04-28T09:12:46;14.60;99.90
18450;DHT22;9354;50.194;7.690;2023-04-28T09:15:31;14.80;99.90
18450;DHT22;9354;50.194;7.690;2023-04-28T09:17:59;15.00;99.90
18450;DHT22;9354;50.194;7.690;2023-04-28T09:20:29;15.00;99.90
18450;DHT22;9354;50.194;7.690;2023-04-28T09:23:11;15.10;99.90
18450;DHT22;9354;50.194;7.690;2023-04-28T09:25:54;15.10;99.90
18450;DHT22;9354;50.194;7.690;2023-04-28T09:28:21;15.10;99.90
18450;DHT22;9354;50.194;7.690;2023-04-28T09:30:49;15.00;99.90
18450;DHT22;9354;50.194;7.690;2023-04-28T09:33:16;15.00;99.90
18450;DHT22;9354;50.194;7.690;2023-04-28T09:35:44;15.00;99.90
18450;DHT22;9354;50.194;7.690;2023-04-28T09:38:12;15.10;99.90
18450;DHT22;9354;50.194;7.690;2023-04-28T09:40:52;15.10;99.90
18450;DHT22;9354;50.194;7.690;2023-04-28T09:43:27;15.10;99.90
18450;DHT22;9354;50.194;7.690;2023-04-28T09:45:55;15.20;99.90
18450;DHT22;9354;50.194;7.690;2023-04-28T09:48:27;15.20;99.90
18450;DHT22;9354;50.194;7.690;2023-04-28T09:50:55;15.30;99.90
18450;DHT22;9354;50.194;7.690;2023-04-28T09:53:24;15.30;99.90
18450;DHT22;9354;50.194;7.690;2023-04-28T09:55:56;15.30;99.90
18450;DHT22;9354;50.194;7.690;2023-04-28T09:58:25;15.30;99.90
18450;DHT22;9354;50.194;7.690;2023-04-28T10:00:53;15.20;99.90
18450;DHT22;9354;50.194;7.690;2023-04-28T10:03:21;15.10;99.90
18450;DHT22;9354;50.194;7.690;2023-04-28T10:05:50;15.00;99.90
18450;DHT22;9354;50.194;7.690;2023-04-28T10:08:19;14.90;99.90
18450;DHT22;9354;50.194;7.690;2023-04-28T10:10:47;14.90;99.90
18450;DHT22;9354;50.194;7.690;2023-04-28T10:13:17;14.90;99.90
18450;DHT22;9354;50.194;7.690;2023-04-28T10:15:45;14.90;99.90
18450;DHT22;9354;50.194;7.690;2023-04-28T10:18:12;15.00;99.90
18450;DHT22;9354;50.194;7.690;2023-04-28T10:20:42;15.00;99.90
18450;DHT22;9354;50.194;7.690;2023-04-28T10:23:30;15.00;99.90
18450;DHT22;9354;50.194;7.690;2023-04-28T10:26:08;14.90;99.90
18450;DHT22;9354;50.194;7.690;2023-04-28T10:28:44;14.80;99.90
18450;DHT22;9354;50.194;7.690;2023-04-28T10:31:13;14.70;99.90
18450;DHT22;9354;50.194;7.690;2023-04-28T10:33:41;14.50;99.90
18450;DHT22;9354;50.194;7.690;2023-04-28T10:36:09;14.40;99.90
18450;DHT22;9354;50.194;7.690;2023-04-28T10:39:10;14.30;99.90
18450;DHT22;9354;50.194;7.690;2023-04-28T10:41:38;14.20;99.90
18450;DHT22;9354;50.194;7.690;2023-04-28T10:44:42;14.20;99.90
18450;DHT22;9354;50.194;7.690;2023-04-28T10:47:10;14.20;99.90
18450;DHT22;9354;50.194;7.690;2023-04-28T10:50:06;14.20;99.90
18450;DHT22;9354;50.194;7.690;2023-04-28T10:52:47;14.60;99.90
18450;DHT22;9354;50.194;7.690;2023-04-28T10:55:33;14.90;99.90
18450;DHT22;9354;50.194;7.690;2023-04-28T10:58:30;15.30;99.90
18450;DHT22;9354;50.194;7.690;2023-04-28T11:01:23;15.50;99.90
18450;DHT22;9354;50.194;7.690;2023-04-28T11:03:51;15.70;99.90
18450;DHT22;9354;50.194;7.690;2023-04-28T11:06:26;16.00;99.90
18450;DHT22;9354;50.194;7.690;2023-04-28T11:08:55;16.30;99.90
18450;DHT22;9354;50.194;7.690;2023-04-28T11:11:25;16.60;99.90
18450;DHT22;9354;50.194;7.690;2023-04-28T11:13:54;16.80;99.90
18450;DHT22;9354;50.194;7.690;2023-04-28T11:16:23;16.90;99.90
18450;DHT22;9354;50.194;7.690;2023-04-28T11:18:53;16.90;99.90
18450;DHT22;9354;50.194;7.690;2023-04-28T11:21:22;16.90;99.90
18450;DHT22;9354;50.194;7.690;2023-04-28T11:23:50;16.80;99.90
18450;DHT22;9354;50.194;7.690;2023-04-28T11:26:18;16.90;99.90
18450;DHT22;9354;50.194;7.690;2023-04-28T11:28:48;16.90;99.90
18450;DHT22;9354;50.194;7.690;2023-04-28T11:31:17;16.80;99.90
18450;DHT22;9354;50.194;7.690;2023-04-28T11:33:50;16.60;99.90
18450;DHT22;9354;50.194;7.690;2023-04-28T11:36:26;16.40;99.90
18450;DHT22;9354;50.194;7.690;2023-04-28T11:38:54;16.50;99.90
18450;DHT22;9354;50.194;7.690;2023-04-28T11:41:22;16.70;99.90
18450;DHT22;9354;50.194;7.690;2023-04-28T11:43:51;16.80;99.90
18450;DHT22;9354;50.194;7.690;2023-04-28T11:46:20;16.70;99.90
18450;DHT22;9354;50.194;7.690;2023-04-28T11:48:48;16.70;99.90
18450;DHT22;9354;50.194;7.690;2023-04-28T11:51:43;16.60;99.90
18450;DHT22;9354;50.194;7.690;2023-04-28T11:54:11;16.50;99.90
18450;DHT22;9354;50.194;7.690;2023-04-28T11:56:41;16.40;99.90
18450;DHT22;9354;50.194;7.690;2023-04-28T11:59:11;16.30;99.90
18450;DHT22;9354;50.194;7.690;2023-04-28T12:01:48;16.30;99.90
18450;DHT22;9354;50.194;7.690;2023-04-28T12:04:27;16.30;99.90
18450;DHT22;9354;50.194;7.690;2023-04-28T12:07:02;16.20;99.90
18450;DHT22;9354;50.194;7.690;2023-04-28T12:09:30;16.10;99.90
18450;DHT22;9354;50.194;7.690;2023-04-28T12:12:00;16.10;99.90
18450;DHT22;9354;50.194;7.690;2023-04-28T12:14:31;16.10;99.90
18450;DHT22;9354;50.194;7.690;2023-04-28T12:17:00;16.10;99.90
18450;DHT22;9354;50.194;7.690;2023-04-28T12:19:28;16.10;99.90
18450;DHT22;9354;50.194;7.690;2023-04-28T12:22:00;16.00;99.90
18450;DHT22;9354;50.194;7.690;2023-04-28T12:24:28;16.00;99.90
18450;DHT22;9354;50.194;7.690;2023-04-28T12:27:13;16.10;99.90
18450;DHT22;9354;50.194;7.690;2023-04-28T12:29:43;16.30;99.90
18450;DHT22;9354;50.194;7.690;2023-04-28T12:32:12;16.50;99.90
18450;DHT22;9354;50.194;7.690;2023-04-28T12:34:40;16.60;99.90
18450;DHT22;9354;50.194;7.690;2023-04-28T12:37:08;16.60;99.90
18450;DHT22;9354;50.194;7.690;2023-04-28T12:39:40;16.50;99.90
18450;DHT22;9354;50.194;7.690;2023-04-28T12:42:08;16.50;99.90
18450;DHT22;9354;50.194;7.690;2023-04-28T12:44:36;16.40;99.90
18450;DHT22;9354;50.194;7.690;2023-04-28T12:47:06;16.40;99.90
18450;DHT22;9354;50.194;7.690;2023-04-28T12:49:34;16.40;99.90
18450;DHT22;9354;50.194;7.690;2023-04-28T12:52:02;16.40;99.90
18450;DHT22;9354;50.194;7.690;2023-04-28T12:54:30;16.40;99.90
18450;DHT22;9354;50.194;7.690;2023-04-28T12:56:57;16.30;99.90
18450;DHT22;9354;50.194;7.690;2023-04-28T12:59:24;16.20;99.90
18450;DHT22;9354;50.194;7.690;2023-04-28T13:01:52;16.10;99.90
18450;DHT22;9354;50.194;7.690;2023-04-28T13:04:21;15.90;99.90
18450;DHT22;9354;50.194;7.690;2023-04-28T13:06:49;15.80;99.90
18450;DHT22;9354;50.194;7.690;2023-04-28T13:09:16;15.70;99.90
18450;DHT22;9354;50.194;7.690;2023-04-28T13:11:44;15.70;99.90
18450;DHT22;9354;50.194;7.690;2023-04-28T13:14:13;15.50;99.90
18450;DHT22;9354;50.194;7.690;2023-04-28T13:16:40;15.40;99.90
18450;DHT22;9354;50.194;7.690;2023-04-28T13:19:07;15.30;99.90
18450;DHT22;9354;50.194;7.690;2023-04-28T13:21:40;15.20;99.90
18450;DHT22;9354;50.194;7.690;2023-04-28T13:24:08;15.10;99.90
18450;DHT22;9354;50.194;7.690;2023-04-28T13:26:36;14.90;99.90
18450;DHT22;9354;50.194;7.690;2023-04-28T13:29:03;14.80;99.90
18450;DHT22;9354;50.194;7.690;2023-04-28T13:31:30;14.80;99.90
18450;DHT22;9354;50.194;7.690;2023-04-28T13:33:58;14.80;99.90
18450;DHT22;9354;50.194;7.690;2023-04-28T13:36:27;14.90;99.90
18450;DHT22;9354;50.194;7.690;2023-04-28T13:38:56;15.10;99.90
18450;DHT22;9354;50.194;7.690;2023-04-28T13:41:24;15.20;99.90
18450;DHT22;9354;50.194;7.690;2023-04-28T13:43:52;15.30;99.90
18450;DHT22;9354;50.194;7.690;2023-04-28T13:46:19;15.50;99.90
18450;DHT22;9354;50.194;7.690;2023-04-28T13:48:47;15.70;99.90
18450;DHT22;9354;50.194;7.690;2023-04-28T13:51:15;16.00;99.90
18450;DHT22;9354;50.194;7.690;2023-04-28T13:53:42;16.30;99.90
18450;DHT22;9354;50.194;7.690;2023-04-28T13:56:14;16.50;99.90
18450;DHT22;9354;50.194;7.690;2023-04-28T13:58:41;16.50;99.90
18450;DHT22;9354;50.194;7.690;2023-04-28T14:01:09;16.60;99.90
18450;DHT22;9354;50.194;7.690;2023-04-28T14:03:36;16.60;99.90
18450;DHT22;9354;50.194;7.690;2023-04-28T14:06:05;16.70;99.90
18450;DHT22;9354;50.194;7.690;2023-04-28T14:08:33;16.70;99.90
18450;DHT22;9354;50.194;7.690;2023-04-28T14:11:01;16.90;99.90
18450;DHT22;9354;50.194;7.690;2023-04-28T14:13:30;17.10;99.90
18450;DHT22;9354;50.194;7.690;2023-04-28T14:15:58;17.30;99.90
18450;DHT22;9354;50.194;7.690;2023-04-28T14:18:25;17.60;99.90
18450;DHT22;9354;50.194;7.690;2023-04-28T14:20:53;17.90;99.90
18450;DHT22;9354;50.194;7.690;2023-04-28T14:23:20;18.30;99.90
18450;DHT22;9354;50.194;7.690;2023-04-28T14:25:48;18.50;99.90
18450;DHT22;9354;50.194;7.690;2023-04-28T14:28:16;18.60;99.90
18450;DHT22;9354;50.194;7.690;2023-04-28T14:30:45;18.70;99.90
18450;DHT22;9354;50.194;7.690;2023-04-28T14:33:12;18.90;99.90
18450;DHT22;9354;50.194;7.690;2023-04-28T14:35:40;19.10;99.90
18450;DHT22;9354;50.194;7.690;2023-04-28T14:38:07;19.20;99.90
18450;DHT22;9354;50.194;7.690;2023-04-28T14:40:35;19.30;99.90
18450;DHT22;9354;50.194;7.690;2023-04-28T14:43:02;19.30;99.90
18450;DHT22;9354;50.194;7.690;2023-04-28T14:45:29;19.40;99.90
18450;DHT22;9354;50.194;7.690;2023-04-28T14:47:58;19.60;99.90
18450;DHT22;9354;50.194;7.690;2023-04-28T14:50:26;19.70;99.90
18450;DHT22;9354;50.194;7.690;2023-04-28T14:52:53;19.90;99.90
18450;DHT22;9354;50.194;7.690;2023-04-28T14:55:21;20.20;99.90
18450;DHT22;9354;50.194;7.690;2023-04-28T14:57:48;20.30;99.90
18450;DHT22;9354;50.194;7.690;2023-04-28T15:00:16;20.50;99.90
18450;DHT22;9354;50.194;7.690;2023-04-28T15:02:44;20.60;99.90
18450;DHT22;9354;50.194;7.690;2023-04-28T15:05:13;20.50;99.90
18450;DHT22;9354;50.194;7.690;2023-04-28T15:07:40;20.40;99.90
18450;DHT22;9354;50.194;7.690;2023-04-28T15:10:08;20.20;99.90
18450;DHT22;9354;50.194;7.690;2023-04-28T15:12:35;20.00;99.90
18450;DHT22;9354;50.194;7.690;2023-04-28T15:15:03;19.80;99.90
18450;DHT22;9354;50.194;7.690;2023-04-28T15:17:31;19.60;99.90
18450;DHT22;9354;50.194;7.690;2023-04-28T15:19:59;19.50;99.90
18450;DHT22;9354;50.194;7.690;2023-04-28T15:22:28;19.30;99.90
18450;DHT22;9354;50.194;7.690;2023-04-28T15:24:55;19.20;99.90
18450;DHT22;9354;50.194;7.690;2023-04-28T15:27:23;19.00;99.90
18450;DHT22;9354;50.194;7.690;2023-04-28T15:29:50;18.80;99.90
18450;DHT22;9354;50.194;7.690;2023-04-28T15:32:18;18.50;99.90
18450;DHT22;9354;50.194;7.690;2023-04-28T15:34:45;17.70;99.90
18450;DHT22;9354;50.194;7.690;2023-04-28T15:37:41;17.00;99.90
18450;DHT22;9354;50.194;7.690;2023-04-28T15:40:11;16.50;99.90
18450;DHT22;9354;50.194;7.690;2023-04-28T15:42:38;16.10;99.90
18450;DHT22;9354;50.194;7.690;2023-04-28T15:45:08;15.80;99.90
18450;DHT22;9354;50.194;7.690;2023-04-28T15:47:37;15.70;99.90
18450;DHT22;9354;50.194;7.690;2023-04-28T15:50:07;15.80;99.90
18450;DHT22;9354;50.194;7.690;2023-04-28T15:52:37;15.90;99.90
18450;DHT22;9354;50.194;7.690;2023-04-28T15:55:08;16.20;99.90